Main page
METAR-TAF:

METAR-TAF

Airports :

Blackpool, England

Blackpool Airport

latitude: 53-46N, longitude: 003-02W, elevation: 10 m

Current weather observation

The report was made 6 hours and 56 minutes ago, at 19:50 UTC
Wind 10 kt from the South/Southeast
Temperature 18°C
Humidity 83%
Pressure 1011 hPa
Visibility 10 km or more
Few clouds at a height of 3500 ft

METAR: EGNH 211950Z 15010KT 9999 FEW035 18/15 Q1011

Time: 03:46 (02:46 UTC)

Forecast

The report was made 9 hours and 49 minutes ago, at 16:57 UTC
Forecast valid from 21 at 18 UTC to 21 at 20 UTC
Wind 8 kt from the South/Southeast
Visibility 10 km or more
Few clouds at a height of 4500 ft
Probability 30% :
Temporary
from 21 at 18 UTC to 21 at 20 UTC
Visibility: 4000 m
thunderstorm, rain, small hail or snow pellets

TAF: EGNH 211657Z 2118/2120 15008KT 9999 FEW045 PROB30 TEMPO 2118/2120 4000 TSRAGS

Weather observations and forecasts of more than 4000 airports (METAR and TAF reports).

The available stations are represented by yellow and red dots on the map.

Hover mouse over dot to see the name of the station.

Then click to see weather observations and forecasts.

To change the map : click on the green buttons with a black cross to zoom in, on the green button with a dash to zoom out, or on the green arrows for adjacent maps.


METAR-TAF: